AirNav   Pilot Hours Calculator
 
 617 users online  

CN88 Kaiser Medical Center Vacaville Heliport
Vacaville, California, USA

GOING TO VACAVILLE?


FAA INFORMATION EFFECTIVE 28 MARCH 2019

Location

FAA Identifier: CN88
Lat/Long: 38-23-19.5000N / 121-56-25.5000W
38-23.325000N / 121-56.425000W
38.3887500 / -121.9404167
(estimated)
Elevation: 100 ft. / 30 m (estimated)
From city: 3 miles NE of VACAVILLE, CA
Time zone: UTC -7 (UTC -8 during Standard Time)
Zip code: 95687

Heliport Operations

Heliport use: Private use. Permission required prior to landing
Activation date: 10/2015
Control tower: no
ARTCC: OAKLAND CENTER
FSS: RANCHO MURIETA FLIGHT SERVICE STATION
Attendance: CONTINUOUS
Wind indicator: lighted, LTD WDI 115 FT SW AT GND LVL AND 250 FT SE ON HOSPITAL ROOF
Segmented circle: no
Beacon: white-green-yellow (heliport)
Operates sunset to sunrise.

Heliport Communications

WX ASOS at VCB (1.2 nm SW): 134.75 (707-448-1594)
WX AWOS-3 at EDU (11 nm NE): 119.025 (530-754-6839)
WX AWOS-3 at DWA (12 nm N): 125.775 (530-750-2759)
WX AWOS-AV at O88 (16 nm SE): 127.075 (707-374-5396)
WX ASOS at APC (19 nm SW): PHONE 707-252-7916

Nearby radio navigation aids

VOR radial/distance  VOR name  Freq  Var
SACr243/18.6SACRAMENTO VORTAC115.2017E
CCRr356/21.2CONCORD VOR/DME117.0017E
SGDr041/23.9SCAGGS ISLAND VORTAC112.1017E
MCCr219/30.2MC CLELLAN VOR/DME109.2017E

Heliport Services

Runway Information

Helipad H1

Dimensions: 54 x 54 ft. / 16 x 16 m
Surface: concrete, in good condition
Runway edge lights: PERI
Latitude: 38-23.325000N
Longitude: 121-56.425000W
Elevation: 100.0 ft.
Traffic pattern: leftleft
Markings: basic, in good condition

Heliport Ownership and Management from official FAA records

Ownership: Privately-owned
Owner: KAISER FOUNDATION HEALTH PLAN, INC.
1 QUALITY DRIVE
VACAVILLE, CA 95688
Phone 707-624-4000
Manager: RON BASS
1 QUALITY DRIVE
VACAVILLE, CA 95688
Phone 707-624-2572

Instrument Procedures

There are no published instrument procedures at CN88.

Some nearby airports with instrument procedures:

KVCB - Nut Tree Airport (1 nm SW)
KSUU - Travis Air Force Base (7 nm S)
KEDU - University Airport (11 nm NE)
KDWA - Yolo County Airport (12 nm N)
O88 - Rio Vista Municipal Airport (16 nm SE)
O41 - Watts-Woodland Airport (17 nm N)
KAPC - Napa County Airport (19 nm SW)
 
Loc | Ops | Rwys | IFR | FBO | Links
Com | Nav | Svcs | Stats | Notes
Aerial photo
No photo
 
Airport distance calculator
Flying to Kaiser Medical Center Vacaville Heliport? Find the distance to fly.

From to CN88

Sunrise and sunset
Times for 20-Apr-2019
 Local
(UTC-7)
 Zulu
(UTC)
Morning civil twilight05:5812:58
Sunrise06:2613:26
Sunset19:4802:48
Evening civil twilight20:1503:15

Current date and time
Zulu (UTC)  21-Apr-2019 03:55:58
Local (UTC-7)  20-Apr-2019 20:55:58
 
METAR
KSUU 
7nm S 
210258Z AUTO 21015KT 10SM CLR 14/09 A2990 RMK AO2 SLP132 T01390087 52007 $
KEDU 
11nm NE 
210335Z AUTO 00000KT 10SM CLR 15/10 A2991 RMK AO1
KAPC 
20nm SW 
210254Z AUTO 27014KT 10SM CLR 13/09 A2991 RMK AO2 SLP121 T01330089 53010
TAF
KSUU 
7nm S 
201900Z 2019/2201 24020G30KT 9999 SCT050 QNH2980INS BECMG 2105/2106 24012KT 9999 SCT050 QNH2994INS BECMG 2114/2115 33009KT 9999 SKC QNH3000INS BECMG 2117/2118 33012G18KT 9999 SKC QNH2998INS TX23/2023Z TN10/2112Z
NOTAMs
Click for the latest NOTAMs
NOTAMs are issued by the DoD/FAA and will open in a separate window not controlled by AirNav.

 

 
 

Would you like to see your business listed on this page?

 If your business provides an interesting product or service to pilots, flight crews, aircraft, or users of the Kaiser Medical Center Vacaville Heliport, you should consider listing it here.  To start the listing process, click on the button below
 
Add a business
 

Other Pages about Kaiser Medical Center Vacaville Heliport

Update a link
 
Copyright © AirNav, LLC. All rights reserved. Privacy Policy  Contact